sensor_id;sensor_type;location;lat;lon;timestamp;temperature;humidity
46335;DHT22;32051;48.882;9.210;2023-06-04T11:06:02;29.60;63.60
46335;DHT22;32051;48.882;9.210;2023-06-04T11:08:39;29.30;63.90
46335;DHT22;32051;48.882;9.210;2023-06-04T11:11:11;29.80;62.00
46335;DHT22;32051;48.882;9.210;2023-06-04T11:13:37;30.20;61.50
46335;DHT22;32051;48.882;9.210;2023-06-04T11:18:40;31.30;90.70
46335;DHT22;32051;48.882;9.210;2023-06-04T11:21:06;31.40;90.90
46335;DHT22;32051;48.882;9.210;2023-06-04T11:23:33;31.60;58.80
46335;DHT22;32051;48.882;9.210;2023-06-04T11:25:59;32.00;57.30
46335;DHT22;32051;48.882;9.210;2023-06-04T11:28:25;32.30;56.60
46335;DHT22;32051;48.882;9.210;2023-06-04T11:31:01;32.50;57.40
46335;DHT22;32051;48.882;9.210;2023-06-04T11:33:47;32.70;56.90
46335;DHT22;32051;48.882;9.210;2023-06-04T11:36:26;32.90;56.40
46335;DHT22;32051;48.882;9.210;2023-06-04T11:38:59;32.90;55.40
46335;DHT22;32051;48.882;9.210;2023-06-04T11:41:27;33.10;55.80
46335;DHT22;32051;48.882;9.210;2023-06-04T13:32:50;36.20;47.40
46335;DHT22;32051;48.882;9.210;2023-06-04T13:35:16;37.10;46.70
46335;DHT22;32051;48.882;9.210;2023-06-04T13:54:45;36.80;45.60
46335;DHT22;32051;48.882;9.210;2023-06-04T13:57:10;36.60;45.80
46335;DHT22;32051;48.882;9.210;2023-06-04T13:59:38;36.40;45.30
46335;DHT22;32051;48.882;9.210;2023-06-04T14:02:04;36.50;45.30
46335;DHT22;32051;48.882;9.210;2023-06-04T14:04:30;36.60;45.30
46335;DHT22;32051;48.882;9.210;2023-06-04T14:06:56;36.60;45.20
46335;DHT22;32051;48.882;9.210;2023-06-04T14:09:21;36.70;45.00
46335;DHT22;32051;48.882;9.210;2023-06-04T14:11:47;36.70;44.40
46335;DHT22;32051;48.882;9.210;2023-06-04T14:14:19;36.40;44.80
46335;DHT22;32051;48.882;9.210;2023-06-04T14:16:45;35.90;44.80
46335;DHT22;32051;48.882;9.210;2023-06-04T14:19:11;35.60;45.30
46335;DHT22;32051;48.882;9.210;2023-06-04T14:21:37;35.30;46.10
46335;DHT22;32051;48.882;9.210;2023-06-04T14:24:03;34.90;45.90
46335;DHT22;32051;48.882;9.210;2023-06-04T14:26:29;34.90;46.80
46335;DHT22;32051;48.882;9.210;2023-06-04T14:28:56;35.10;46.70
46335;DHT22;32051;48.882;9.210;2023-06-04T14:31:22;35.20;46.30
46335;DHT22;32051;48.882;9.210;2023-06-04T14:33:47;35.60;46.10
46335;DHT22;32051;48.882;9.210;2023-06-04T14:36:13;35.70;44.90
46335;DHT22;32051;48.882;9.210;2023-06-04T14:38:39;35.90;44.90
46335;DHT22;32051;48.882;9.210;2023-06-04T14:41:05;36.00;45.50
46335;DHT22;32051;48.882;9.210;2023-06-04T14:43:31;36.00;45.40
46335;DHT22;32051;48.882;9.210;2023-06-04T14:45:56;36.10;44.90
46335;DHT22;32051;48.882;9.210;2023-06-04T14:48:22;35.90;44.90
46335;DHT22;32051;48.882;9.210;2023-06-04T14:50:48;35.70;44.80
46335;DHT22;32051;48.882;9.210;2023-06-04T14:55:41;35.30;44.40
46335;DHT22;32051;48.882;9.210;2023-06-04T14:58:07;34.90;45.70
46335;DHT22;32051;48.882;9.210;2023-06-04T15:00:33;34.90;45.00
46335;DHT22;32051;48.882;9.210;2023-06-04T15:02:58;34.70;44.60
46335;DHT22;32051;48.882;9.210;2023-06-04T15:05:27;34.70;45.40
46335;DHT22;32051;48.882;9.210;2023-06-04T15:07:53;34.70;45.20
46335;DHT22;32051;48.882;9.210;2023-06-04T15:10:18;34.70;45.60
46335;DHT22;32051;48.882;9.210;2023-06-04T15:12:45;34.60;44.30
46335;DHT22;32051;48.882;9.210;2023-06-04T15:22:30;34.40;44.80
46335;DHT22;32051;48.882;9.210;2023-06-04T15:24:55;32.10;46.40
46335;DHT22;32051;48.882;9.210;2023-06-04T15:27:21;31.30;47.60
